Observations for SOUTHAMPTON WX CNTR, United Kingdom (EGHI)

EGHI 221420Z 02007KT 340V050 CAVOK 12/03 Q1037  
EGHI 221350Z 02010KT 340V080 CAVOK 12/04 Q1037  
EGHI 221320Z 02010KT 340V080 CAVOK 12/04 Q1037  
EGHI 221250Z 04011KT 010V080 9999 FEW040 12/04 Q1037
EGHI 221220Z 04012KT 010V070 9999 FEW040 12/04 Q1037
EGHI 221150Z 04012KT 010V070 9999 FEW040 12/04 Q1037
EGHI 221120Z 02013KT CAVOK 11/03 Q1037  
EGHI 221050Z 02010KT 340V050 CAVOK 11/04 Q1037  
EGHI 221020Z 03012KT 360V070 CAVOK 11/03 Q1037  
EGHI 220950Z 02009KT 360V060 CAVOK 10/03 Q1037  
EGHI 220920Z 02010KT 350V070 CAVOK 09/03 Q1037  
EGHI 220850Z 02010KT CAVOK 08/03 Q1037  
EGHI 220820Z 03008KT 360V070 CAVOK 08/03 Q1037  
EGHI 220750Z 02007KT 350V050 CAVOK 07/03 Q1037  
EGHI 220720Z 01006KT 350V050 CAVOK 06/02 Q1036  
EGHI 220650Z 01004KT 340V050 CAVOK 06/02 Q1036  
EGHI 220620Z VRB03KT CAVOK 05/02 Q1035  
EGHI 220550Z 03006KT CAVOK 06/03 Q1035  
EGHI 220520Z 02008KT CAVOK 07/03 Q1035  
EGHI 220450Z 02007KT 340V040 CAVOK 07/03 Q1034  
EGHI 212120Z 35004KT 320V020 9999 FEW021 SCT025 13/10 Q1029 
EGHI 212050Z 35004KT 320V020 9999 BKN031 13/10 Q1029
EGHI 212020Z 35004KT 320V020 9999 SCT028 13/10 Q1028
EGHI 211950Z VRB03KT 9999 SCT028 13/10 Q1028
EGHI 211850Z VRB03KT CAVOK 13/10 Q1028  
EGHI 211820Z VRB02KT CAVOK 13/10 Q1028  
EGHI 211750Z VRB02KT CAVOK 14/10 Q1028  
EGHI 211720Z VRB02KT CAVOK 14/10 Q1027  
EGHI 211650Z VRB03KT CAVOK 15/10 Q1027  
EGHI 211620Z 28004KT CAVOK 16/09 Q1026  
EGHI 211550Z 28005KT 250V310 CAVOK 17/09 Q1026  
EGHI 211520Z 28006KT 240V310 CAVOK 18/08 Q1026  
EGHI 211450Z 23005KT 190V260 CAVOK 18/08 Q1026  
EGHI 211420Z VRB03KT CAVOK 18/10 Q1026  
EGHI 211350Z VRB03KT 9999 FEW034 17/10 Q1027